Time;durP1;ratioP1;P1;durP2;ratioP2;P2;SDS_P1;SDS_P2;PMS_P1;PMS_P2;Temp;Humidity;BMP_temperature;BMP_pressure;BME280_temperature;BME280_humidity;BME280_pressure;Samples;Min_cycle;Max_cycle;Signal;HPM_P1;HPM_P2
2024/01/03 00:00:28;;;;;;;3.30;2.00;;;;;;;19.55;53.09;95746.56;5015056;28;20709;-27
2024/01/03 00:02:55;;;;;;;2.60;1.90;;;;;;;19.55;53.08;95751.66;5014162;28;20756;-29
2024/01/03 00:05:29;;;;;;;2.77;1.97;;;;;;;19.58;53.04;95743.19;5013016;28;20278;-27
2024/01/03 00:07:56;;;;;;;2.27;1.70;;;;;;;19.60;52.90;95746.59;5013935;28;20210;-26
2024/01/03 00:10:22;;;;;;;2.87;2.03;;;;;;;19.61;52.89;95745.75;5014453;28;20709;-26
2024/01/03 00:12:49;;;;;;;2.77;1.87;;;;;;;19.61;53.02;95746.63;5014346;28;20514;-26
2024/01/03 00:15:33;;;;;;;2.03;1.80;;;;;;;19.63;52.77;95738.97;5014340;28;20254;-33
2024/01/03 00:18:03;;;;;;;3.93;2.20;;;;;;;19.64;52.78;95756.84;5008731;28;20238;-26
2024/01/03 00:20:32;;;;;;;4.77;2.20;;;;;;;19.55;53.07;95732.97;5013110;28;20574;-27
2024/01/03 00:22:59;;;;;;;2.50;1.70;;;;;;;19.63;52.92;95744.91;5014390;28;20213;-26
2024/01/03 00:25:28;;;;;;;3.80;2.10;;;;;;;19.61;52.94;95744.06;5014069;28;20246;-28
2024/01/03 00:27:55;;;;;;;2.73;1.80;;;;;;;19.60;52.79;95738.97;5014149;28;20297;-26
2024/01/03 00:30:22;;;;;;;4.17;2.33;;;;;;;19.60;52.97;95747.44;5013561;28;20256;-28
2024/01/03 00:32:49;;;;;;;3.37;2.17;;;;;;;19.58;52.94;95738.09;5012855;28;20206;-26
2024/01/03 00:35:29;;;;;;;2.67;2.00;;;;;;;19.57;53.13;95739.75;5013182;28;20222;-26
2024/01/03 00:37:56;;;;;;;2.70;2.10;;;;;;;19.56;52.98;95735.53;5014112;28;20213;-26
2024/01/03 00:40:31;;;;;;;3.17;2.17;;;;;;;19.57;53.07;95733.84;5028292;28;20226;-28
2024/01/03 00:42:58;;;;;;;2.47;1.80;;;;;;;19.57;53.17;95741.47;5013909;28;20260;-26
2024/01/03 00:45:24;;;;;;;3.40;2.10;;;;;;;19.56;53.14;95744.84;5013122;28;20209;-29
2024/01/03 00:47:51;;;;;;;3.27;1.93;;;;;;;19.56;53.22;95737.19;5013907;28;20202;-27
2024/01/03 00:50:18;;;;;;;2.73;1.80;;;;;;;19.55;53.04;95746.56;5014246;28;20321;-26
2024/01/03 00:52:45;;;;;;;2.73;1.83;;;;;;;19.54;53.15;95737.19;5006022;28;20238;-28
2024/01/03 00:55:13;;;;;;;4.47;1.90;;;;;;;19.55;53.16;95741.47;5012247;28;20257;-26
2024/01/03 00:57:39;;;;;;;1.97;1.83;;;;;;;19.55;53.26;95736.38;5013380;28;20234;-26
2024/01/03 01:00:07;;;;;;;2.27;2.00;;;;;;;19.54;53.32;95734.63;5013430;28;20234;-26
2024/01/03 01:02:33;;;;;;;2.67;2.07;;;;;;;19.55;53.33;95727.84;5011828;28;20202;-26
2024/01/03 01:05:00;;;;;;;2.33;1.70;;;;;;;19.54;53.29;95737.19;4991249;28;20575;-26
2024/01/03 01:07:27;;;;;;;2.80;2.10;;;;;;;19.55;53.30;95735.50;5025209;28;20202;-26
2024/01/03 01:09:53;;;;;;;3.00;1.83;;;;;;;19.54;53.30;95749.94;5013018;28;20238;-28
2024/01/03 01:12:21;;;;;;;2.50;1.73;;;;;;;19.54;53.36;95738.91;5012993;28;20218;-26
2024/01/03 01:14:48;;;;;;;3.33;1.90;;;;;;;19.55;53.51;95744.00;5012874;28;20637;-29
2024/01/03 01:17:14;;;;;;;3.13;1.90;;;;;;;19.57;53.36;95749.13;5013303;28;20210;-27
2024/01/03 01:19:41;;;;;;;2.50;1.70;;;;;;;19.55;53.35;95744.00;5012866;28;20218;-26
2024/01/03 01:22:08;;;;;;;3.10;1.97;;;;;;;19.56;53.29;95752.50;5012379;28;20701;-26
2024/01/03 01:24:34;;;;;;;2.33;1.97;;;;;;;19.55;53.61;95758.44;5013139;28;20260;-26
2024/01/03 01:27:01;;;;;;;2.30;1.83;;;;;;;19.56;53.37;95761.00;5013470;28;20199;-29
2024/01/03 01:29:27;;;;;;;2.57;1.93;;;;;;;19.56;53.36;95767.78;5013174;28;20230;-26
2024/01/03 01:31:54;;;;;;;2.13;1.70;;;;;;;19.56;53.13;95766.09;5012803;28;20681;-26
2024/01/03 01:34:21;;;;;;;2.40;1.70;;;;;;;19.57;53.15;95766.97;5012801;28;20285;-30
2024/01/03 01:36:47;;;;;;;2.20;1.80;;;;;;;19.58;53.15;95768.66;5012869;28;20209;-26
2024/01/03 01:39:14;;;;;;;3.23;2.40;;;;;;;19.58;53.26;95769.53;5012934;28;20791;-26
2024/01/03 01:41:40;;;;;;;2.23;1.90;;;;;;;19.60;53.36;95764.44;5012612;28;20273;-26
2024/01/03 01:44:07;;;;;;;3.00;1.90;;;;;;;19.60;53.10;95766.97;5012928;28;20206;-27
2024/01/03 01:46:36;;;;;;;1.70;1.60;;;;;;;19.59;53.29;95776.31;5011848;28;20198;-27
2024/01/03 01:49:06;;;;;;;2.80;2.10;;;;;;;19.55;53.07;95766.06;5010706;28;20230;-26
2024/01/03 01:51:33;;;;;;;3.10;2.00;;;;;;;19.57;53.18;95785.63;5011524;28;20198;-29
2024/01/03 01:54:00;;;;;;;2.53;1.80;;;;;;;19.56;53.38;95790.69;5012596;28;20226;-27
2024/01/03 01:56:27;;;;;;;2.10;1.70;;;;;;;19.53;53.33;95791.53;5012294;28;20206;-26
2024/01/03 01:58:53;;;;;;;2.70;1.80;;;;;;;19.54;53.21;95785.59;5003630;28;20218;-28
2024/01/03 02:01:20;;;;;;;4.60;1.80;;;;;;;19.54;53.27;95797.50;5011362;28;20249;-27
2024/01/03 02:03:47;;;;;;;2.13;1.50;;;;;;;19.53;53.39;95796.63;5011451;28;20753;-26
2024/01/03 02:06:15;;;;;;;2.50;1.60;;;;;;;19.53;53.25;95801.72;4994139;28;20206;-28
2024/01/03 02:08:42;;;;;;;2.50;1.80;;;;;;;19.53;53.15;95799.19;5012794;28;20230;-32
2024/01/03 02:11:09;;;;;;;2.10;1.77;;;;;;;19.53;53.40;95798.31;5012431;28;20210;-26
2024/01/03 02:13:35;;;;;;;3.03;1.90;;;;;;;19.53;53.41;95800.88;5012502;28;20206;-26
2024/01/03 02:16:02;;;;;;;2.27;1.70;;;;;;;19.53;53.36;95796.63;5012387;28;20747;-26
2024/01/03 02:18:28;;;;;;;2.10;1.60;;;;;;;19.53;53.56;95796.63;5012049;28;20743;-27
2024/01/03 02:20:56;;;;;;;3.30;1.70;;;;;;;19.53;53.47;95798.31;5011112;28;20554;-27
2024/01/03 02:23:23;;;;;;;2.13;1.90;;;;;;;19.53;53.38;95801.72;5012556;28;20707;-29
2024/01/03 02:25:50;;;;;;;2.20;1.77;;;;;;;19.54;53.00;95812.78;5012537;28;20209;-26
2024/01/03 02:28:16;;;;;;;1.70;1.60;;;;;;;19.52;53.72;95815.31;5012174;28;20264;-26
2024/01/03 02:30:44;;;;;;;2.17;1.77;;;;;;;19.53;53.55;95822.13;5012348;28;20238;-31
2024/01/03 02:33:12;;;;;;;2.73;2.10;;;;;;;19.54;53.28;95820.44;5012351;28;20214;-26
2024/01/03 02:35:38;;;;;;;2.00;1.80;;;;;;;19.54;53.29;95811.06;5011653;28;20230;-26
2024/01/03 02:38:05;;;;;;;2.17;1.77;;;;;;;19.54;53.14;95831.47;5011771;28;20245;-30
2024/01/03 02:40:33;;;;;;;2.07;1.73;;;;;;;19.54;53.32;95828.06;5011927;28;20244;-30
2024/01/03 02:42:59;;;;;;;1.80;1.70;;;;;;;19.54;53.30;95823.81;5012447;28;20202;-28
2024/01/03 02:45:26;;;;;;;1.50;1.40;;;;;;;19.55;53.26;95832.31;5012465;28;20203;-27
2024/01/03 02:47:52;;;;;;;1.50;1.40;;;;;;;19.55;53.27;95827.22;5012462;28;20272;-27
2024/01/03 02:50:19;;;;;;;1.90;1.63;;;;;;;19.56;53.42;95839.97;5012020;28;20288;-26
2024/01/03 02:52:46;;;;;;;1.80;1.60;;;;;;;19.57;53.41;95848.50;5011686;28;20563;-28
2024/01/03 02:55:12;;;;;;;2.03;1.80;;;;;;;19.58;53.41;95843.41;5012200;28;20349;-27
2024/01/03 02:57:41;;;;;;;2.07;1.70;;;;;;;19.57;53.35;95848.50;5011994;28;20214;-26
2024/01/03 03:00:10;;;;;;;2.00;1.80;;;;;;;19.59;53.42;95854.44;5012012;28;20226;-26
2024/01/03 03:02:36;;;;;;;1.63;1.47;;;;;;;19.60;53.03;95853.63;5012971;28;20220;-31
2024/01/03 03:05:04;;;;;;;2.17;1.70;;;;;;;19.61;53.14;95850.22;5015174;28;20569;-30
2024/01/03 03:07:30;;;;;;;2.30;1.70;;;;;;;19.60;53.22;95846.81;5016008;28;20249;-31
2024/01/03 03:09:57;;;;;;;2.27;1.50;;;;;;;19.61;53.26;95838.34;5015413;28;20229;-27
2024/01/03 03:12:24;;;;;;;1.80;1.70;;;;;;;19.61;53.38;95834.94;5015554;28;20301;-26
2024/01/03 03:14:50;;;;;;;1.90;1.70;;;;;;;19.59;53.30;95824.72;5015689;28;20249;-26
2024/01/03 03:17:17;;;;;;;1.97;1.60;;;;;;;19.60;53.70;95828.97;5015707;28;20202;-28
2024/01/03 03:19:43;;;;;;;2.33;1.60;;;;;;;19.59;53.41;95829.81;5015827;28;20230;-29
2024/01/03 03:22:10;;;;;;;1.50;1.40;;;;;;;19.60;53.54;95838.31;5015330;28;20245;-26
2024/01/03 03:24:37;;;;;;;1.60;1.50;;;;;;;19.59;53.36;95841.69;5015351;28;20202;-30
2024/01/03 03:27:04;;;;;;;2.20;1.70;;;;;;;19.59;53.42;95836.59;5015196;28;20214;-27
2024/01/03 03:29:31;;;;;;;1.90;1.70;;;;;;;19.58;53.30;95840.00;5014859;28;20226;-28
2024/01/03 03:31:57;;;;;;;1.47;1.37;;;;;;;19.58;53.45;95843.41;5015202;28;20214;-27
2024/01/03 03:34:24;;;;;;;2.20;1.60;;;;;;;19.58;53.52;95847.63;5014708;28;20207;-31
2024/01/03 03:36:51;;;;;;;1.60;1.50;;;;;;;19.57;53.35;95839.13;5015029;28;20237;-26
2024/01/03 03:39:17;;;;;;;2.03;1.70;;;;;;;19.58;53.46;95850.19;5015012;28;20237;-26
2024/01/03 03:41:44;;;;;;;1.70;1.60;;;;;;;19.59;53.26;95859.53;5014810;28;20637;-26
2024/01/03 03:44:11;;;;;;;2.47;1.70;;;;;;;19.59;53.39;95849.34;5015261;28;20585;-27
2024/01/03 03:46:37;;;;;;;1.63;1.53;;;;;;;19.58;53.43;95858.69;5015061;28;20210;-26
2024/01/03 03:49:04;;;;;;;1.50;1.40;;;;;;;19.59;53.48;95855.31;5008583;28;20231;-28
2024/01/03 03:51:31;;;;;;;1.53;1.43;;;;;;;19.59;53.34;95855.31;5014722;28;20206;-27
2024/01/03 03:53:58;;;;;;;1.90;1.60;;;;;;;19.60;53.54;95858.72;5014915;28;20233;-26
2024/01/03 03:56:25;;;;;;;2.13;1.70;;;;;;;19.59;53.21;95849.34;5015076;28;20716;-28
2024/01/03 03:58:51;;;;;;;1.63;1.50;;;;;;;19.60;53.31;95848.53;5013437;28;20226;-26
2024/01/03 04:01:18;;;;;;;1.70;1.60;;;;;;;19.58;53.29;95834.91;5014132;28;20214;-26
2024/01/03 04:03:45;;;;;;;2.17;1.50;;;;;;;19.60;53.35;95836.63;5014298;28;20245;-28
2024/01/03 04:06:15;;;;;;;2.40;1.60;;;;;;;19.60;53.53;95831.50;5014606;28;20206;-27
2024/01/03 04:08:45;;;;;;;1.80;1.50;;;;;;;19.60;53.41;95834.06;5014056;28;20222;-26
2024/01/03 04:11:12;;;;;;;1.80;1.67;;;;;;;19.60;53.18;95839.16;5007355;28;20224;-26
2024/01/03 04:13:39;;;;;;;1.63;1.53;;;;;;;19.60;53.41;95831.50;5013359;28;20253;-26
2024/01/03 04:16:06;;;;;;;1.90;1.70;;;;;;;19.61;53.02;95830.69;5014326;28;20307;-28
2024/01/03 04:18:35;;;;;;;1.57;1.47;;;;;;;19.60;53.74;95831.50;5014416;28;20268;-26
2024/01/03 04:21:05;;;;;;;2.00;1.60;;;;;;;19.59;53.51;95836.59;5014563;28;20289;-30
2024/01/03 04:23:31;;;;;;;1.67;1.53;;;;;;;19.59;53.48;95834.03;5014467;28;20561;-26
2024/01/03 04:25:58;;;;;;;1.60;1.50;;;;;;;19.60;53.52;95836.63;5013852;28;20210;-27
2024/01/03 04:28:24;;;;;;;1.83;1.50;;;;;;;19.61;53.38;95842.56;5013611;28;20284;-29
2024/01/03 04:30:51;;;;;;;2.97;1.70;;;;;;;19.60;53.60;95846.81;5013116;28;20206;-26
2024/01/03 04:33:18;;;;;;;1.97;1.60;;;;;;;19.60;53.46;95841.72;5013858;28;20202;-26
2024/01/03 04:35:45;;;;;;;1.80;1.50;;;;;;;19.62;53.54;95839.19;5014135;28;20218;-29
2024/01/03 04:38:11;;;;;;;1.70;1.30;;;;;;;19.50;53.36;95832.28;5013670;28;20633;-26
2024/01/03 04:40:38;;;;;;;1.50;1.40;;;;;;;19.61;53.48;95847.66;5013706;28;20725;-26
2024/01/03 04:43:05;;;;;;;1.57;1.47;;;;;;;19.55;53.39;95845.06;5013297;28;20260;-27
2024/01/03 04:45:31;;;;;;;2.30;1.70;;;;;;;19.61;53.46;95845.13;5013746;28;20630;-26
2024/01/03 04:47:58;;;;;;;1.47;1.37;;;;;;;19.61;53.37;95845.97;5013376;28;20207;-26
2024/01/03 04:50:25;;;;;;;2.17;1.57;;;;;;;19.61;53.33;95855.31;5013920;28;20237;-31
2024/01/03 04:52:51;;;;;;;1.50;1.40;;;;;;;19.62;53.43;95860.44;5013671;28;20241;-29
2024/01/03 04:55:18;;;;;;;1.50;1.30;;;;;;;19.61;53.68;95870.59;5013806;28;20718;-31
2024/01/03 04:57:45;;;;;;;2.50;1.57;;;;;;;19.61;53.32;95861.28;5013947;28;20202;-26
2024/01/03 05:00:12;;;;;;;1.40;1.30;;;;;;;19.62;53.49;95869.75;5012633;28;20674;-28
2024/01/03 05:02:38;;;;;;;1.50;1.33;;;;;;;19.60;53.17;95864.63;5013232;28;20209;-26
2024/01/03 05:05:05;;;;;;;1.50;1.40;;;;;;;19.62;53.39;95869.75;5012595;28;20209;-26
2024/01/03 05:07:33;;;;;;;1.50;1.40;;;;;;;19.61;53.55;95879.13;5013557;28;20198;-31
2024/01/03 05:10:03;;;;;;;1.83;1.63;;;;;;;19.62;53.49;95873.16;5012759;28;20236;-26
2024/01/03 05:12:30;;;;;;;1.90;1.70;;;;;;;19.62;53.42;95872.31;5012789;28;20202;-30
2024/01/03 05:14:56;;;;;;;1.57;1.47;;;;;;;19.62;53.38;95879.94;5012843;28;20210;-26
2024/01/03 05:17:23;;;;;;;2.33;1.53;;;;;;;19.62;53.49;95882.50;5013266;28;20202;-26
2024/01/03 05:19:50;;;;;;;1.53;1.40;;;;;;;19.61;53.46;95880.78;5012559;28;20770;-28
2024/01/03 05:22:17;;;;;;;1.40;1.30;;;;;;;19.61;53.56;95891.00;5012873;28;20202;-27
2024/01/03 05:24:43;;;;;;;1.40;1.30;;;;;;;19.62;53.38;95892.69;5012699;28;20210;-26
2024/01/03 05:27:10;;;;;;;1.40;1.30;;;;;;;19.61;53.50;95881.66;5012892;28;20876;-26
2024/01/03 05:29:37;;;;;;;1.50;1.40;;;;;;;19.63;53.51;95891.88;5012655;28;20230;-30
2024/01/03 05:32:04;;;;;;;1.40;1.30;;;;;;;19.62;53.45;95885.03;5012696;28;20209;-26
2024/01/03 05:34:30;;;;;;;1.40;1.30;;;;;;;19.63;53.55;95894.41;5013474;28;20301;-26
2024/01/03 05:36:57;;;;;;;1.73;1.47;;;;;;;19.60;53.58;95891.84;5013115;28;20225;-26
2024/01/03 05:39:23;;;;;;;1.50;1.40;;;;;;;19.60;53.48;95895.22;5012411;28;20253;-26
2024/01/03 05:41:50;;;;;;;1.50;1.40;;;;;;;19.61;53.49;95903.72;5013266;28;20210;-27
2024/01/03 05:44:17;;;;;;;1.63;1.20;;;;;;;19.62;53.43;95900.31;5012343;28;20359;-26
2024/01/03 05:46:43;;;;;;;1.70;1.60;;;;;;;19.62;53.43;95900.31;5012821;28;20205;-26
2024/01/03 05:49:10;;;;;;;1.43;1.33;;;;;;;19.60;53.56;95902.03;5012238;28;20661;-26
2024/01/03 05:51:37;;;;;;;1.30;1.20;;;;;;;19.61;53.43;95903.72;5011303;28;20582;-26
2024/01/03 05:54:03;;;;;;;1.40;1.27;;;;;;;19.61;53.59;95903.72;5011727;28;20268;-29
2024/01/03 05:56:30;;;;;;;1.40;1.30;;;;;;;19.62;53.59;95902.88;5013174;28;20645;-26
2024/01/03 05:58:57;;;;;;;1.50;1.40;;;;;;;19.61;53.84;95903.72;5012511;28;20226;-26
2024/01/03 06:01:23;;;;;;;1.50;1.40;;;;;;;19.61;53.43;95907.13;5012380;28;20248;-28
2024/01/03 06:03:50;;;;;;;1.63;1.40;;;;;;;19.61;53.82;95906.28;5012008;28;20216;-28
2024/01/03 06:06:16;;;;;;;1.30;1.20;;;;;;;19.62;53.24;95910.53;5011194;28;20204;-26
2024/01/03 06:08:43;;;;;;;2.00;1.47;;;;;;;19.62;52.95;95908.84;5013030;28;20229;-26
2024/01/03 06:11:10;;;;;;;1.30;1.20;;;;;;;19.63;53.42;95910.53;5012152;28;20214;-27
2024/01/03 06:13:36;;;;;;;1.77;1.30;;;;;;;19.62;53.48;95906.28;5013087;28;20625;-28
2024/01/03 06:16:03;;;;;;;1.43;1.33;;;;;;;19.62;53.86;95916.50;5012176;28;20218;-26
2024/01/03 06:18:30;;;;;;;1.30;1.20;;;;;;;19.63;53.76;95912.25;5012763;28;20638;-26
2024/01/03 06:20:57;;;;;;;2.43;1.40;;;;;;;19.63;53.62;95917.34;5012613;28;20341;-28
2024/01/03 06:23:24;;;;;;;1.73;1.30;;;;;;;19.64;54.04;95919.06;5012637;28;20194;-26
2024/01/03 06:25:52;;;;;;;1.30;1.20;;;;;;;19.63;53.77;95925.00;5012579;28;20210;-26
2024/01/03 06:28:18;;;;;;;1.40;1.30;;;;;;;19.64;53.64;95924.16;5012434;28;20230;-26
2024/01/03 06:30:45;;;;;;;1.73;1.40;;;;;;;19.63;53.64;95925.81;5011390;28;20692;-28
2024/01/03 06:33:11;;;;;;;1.23;1.13;;;;;;;19.63;53.90;95922.44;5012807;28;20237;-26
2024/01/03 06:35:38;;;;;;;3.43;1.40;;;;;;;19.63;53.70;95928.38;5012239;28;20268;-27
2024/01/03 06:38:05;;;;;;;1.50;1.40;;;;;;;19.64;53.49;95924.16;5011656;28;20206;-26
2024/01/03 06:40:32;;;;;;;1.30;1.20;;;;;;;19.64;53.47;95929.25;5011662;28;20566;-27
2024/01/03 06:42:58;;;;;;;4.17;1.23;;;;;;;19.63;53.51;95932.63;5012087;28;20206;-29
2024/01/03 06:45:25;;;;;;;1.40;1.30;;;;;;;19.63;53.49;95930.94;5012105;28;20653;-26
2024/01/03 06:47:52;;;;;;;1.40;1.30;;;;;;;19.64;53.32;95939.44;5012428;28;20210;-28
2024/01/03 06:50:19;;;;;;;1.37;1.27;;;;;;;19.64;53.25;95941.97;5011602;28;20230;-26
2024/01/03 06:52:45;;;;;;;1.30;1.20;;;;;;;19.64;53.36;95944.53;5011977;28;20199;-27
2024/01/03 06:55:12;;;;;;;1.30;1.20;;;;;;;19.64;53.05;95936.88;5012021;28;20237;-27
2024/01/03 06:57:38;;;;;;;1.30;1.20;;;;;;;19.55;53.21;95922.34;5012550;28;20225;-26
2024/01/03 07:00:05;;;;;;;1.27;1.10;;;;;;;19.64;53.22;95940.31;5011588;28;20280;-26
2024/01/03 07:02:32;;;;;;;1.40;1.30;;;;;;;19.64;53.40;95949.63;5012145;28;20574;-32
2024/01/03 07:04:59;;;;;;;1.27;1.17;;;;;;;19.64;53.30;95954.72;5012563;28;21335;-27
2024/01/03 07:07:25;;;;;;;1.30;1.20;;;;;;;19.63;53.31;95953.03;5012615;28;20190;-29
2024/01/03 07:09:52;;;;;;;1.30;1.20;;;;;;;19.51;52.79;95932.50;5011726;28;20702;-28
2024/01/03 07:12:19;;;;;;;1.23;1.13;;;;;;;19.61;53.40;95945.38;5011477;28;20230;-32
2024/01/03 07:14:46;;;;;;;1.77;1.40;;;;;;;19.61;53.33;95945.38;5011380;28;20728;-26
2024/01/03 07:17:15;;;;;;;2.63;1.60;;;;;;;19.60;53.43;95947.91;5011961;28;20524;-26
2024/01/03 07:19:42;;;;;;;1.20;1.10;;;;;;;19.61;53.09;95957.25;5011046;28;20832;-26
2024/01/03 07:22:08;;;;;;;1.37;1.20;;;;;;;19.60;53.44;95961.47;5011623;28;20198;-26
2024/01/03 07:24:36;;;;;;;2.07;1.33;;;;;;;19.61;53.39;95959.78;5011913;28;20206;-26
2024/01/03 07:27:03;;;;;;;1.40;1.30;;;;;;;19.60;52.86;95966.56;5010917;28;20202;-30
2024/01/03 07:29:30;;;;;;;2.80;1.20;;;;;;;19.59;52.82;95962.31;5011747;28;20288;-26
2024/01/03 07:31:57;;;;;;;1.57;1.30;;;;;;;19.60;52.90;95964.00;5011217;28;20214;-26
2024/01/03 07:34:23;;;;;;;1.30;1.20;;;;;;;19.61;52.95;95962.34;5011008;28;20210;-26
2024/01/03 07:36:50;;;;;;;1.30;1.20;;;;;;;19.61;53.07;95959.78;5011086;28;20268;-26
2024/01/03 07:39:17;;;;;;;1.40;1.30;;;;;;;19.61;53.41;95959.78;5009921;28;20610;-38
2024/01/03 07:41:43;;;;;;;1.30;1.20;;;;;;;19.62;53.36;95966.59;5000106;28;20207;-27
2024/01/03 07:44:10;;;;;;;1.97;1.43;;;;;;;19.63;53.42;95964.06;4998504;28;20217;-33
2024/01/03 07:46:37;;;;;;;1.40;1.30;;;;;;;19.64;53.39;95964.91;4998866;28;20269;-26
2024/01/03 07:49:03;;;;;;;2.83;1.37;;;;;;;19.65;53.42;95970.03;5002022;28;20652;-33
2024/01/03 07:51:30;;;;;;;1.30;1.20;;;;;;;19.66;53.02;95968.34;5005115;28;20660;-33
2024/01/03 07:53:57;;;;;;;1.73;1.30;;;;;;;19.66;53.38;95966.63;5005236;28;20218;-33
2024/01/03 07:56:23;;;;;;;1.50;1.13;;;;;;;19.64;53.55;95965.78;5004428;28;20292;-26
2024/01/03 07:58:50;;;;;;;1.50;1.40;;;;;;;19.55;53.46;95957.16;5005024;28;20675;-26
2024/01/03 08:01:17;;;;;;;1.30;1.20;;;;;;;19.64;53.71;95970.88;5006015;28;20210;-28
2024/01/03 08:03:43;;;;;;;1.83;1.27;;;;;;;19.65;53.84;95974.25;5006009;28;20677;-28
2024/01/03 08:06:11;;;;;;;2.43;1.40;;;;;;;19.67;53.60;95976.00;5005872;28;20214;-31
2024/01/03 08:08:38;;;;;;;2.17;1.40;;;;;;;19.67;54.01;95976.00;5004276;28;20276;-26
2024/01/03 08:11:04;;;;;;;2.97;1.60;;;;;;;19.66;54.01;95970.91;5005568;28;20210;-30
2024/01/03 08:13:31;;;;;;;3.63;1.57;;;;;;;19.66;54.09;95960.72;5006712;28;20269;-29
2024/01/03 08:15:57;;;;;;;2.40;1.40;;;;;;;19.67;53.80;95957.31;5004593;28;20249;-31
2024/01/03 08:18:24;;;;;;;1.87;1.37;;;;;;;19.67;54.02;95958.19;5006758;28;20249;-26
2024/01/03 08:20:52;;;;;;;2.80;1.40;;;;;;;19.68;54.02;95959.00;5006407;28;20226;-29
2024/01/03 08:23:18;;;;;;;3.90;1.80;;;;;;;19.69;54.02;95958.19;5006128;28;20698;-28
2024/01/03 08:25:45;;;;;;;3.00;1.63;;;;;;;19.68;53.86;95944.59;5010266;28;20669;-26
2024/01/03 08:28:12;;;;;;;3.43;1.50;;;;;;;19.68;54.10;95941.16;5013410;28;20669;-28
2024/01/03 08:30:38;;;;;;;3.37;1.57;;;;;;;19.69;53.88;95958.19;5014322;28;20210;-28
2024/01/03 08:33:05;;;;;;;9.63;1.73;;;;;;;19.70;54.45;95952.25;5014581;28;20233;-26
2024/01/03 08:35:32;;;;;;;6.10;1.40;;;;;;;19.73;53.87;95959.94;5014370;28;20293;-26
2024/01/03 08:37:58;;;;;;;4.50;1.70;;;;;;;19.73;53.91;95953.16;5013993;28;20305;-27
2024/01/03 08:40:25;;;;;;;7.53;1.80;;;;;;;19.74;53.99;95954.84;5014461;28;20245;-27
2024/01/03 08:42:51;;;;;;;3.83;1.70;;;;;;;19.75;53.89;95960.81;5014338;28;20198;-26
2024/01/03 08:45:18;;;;;;;6.77;1.53;;;;;;;19.51;53.60;95917.22;5014590;28;20772;-26
2024/01/03 08:47:45;;;;;;;7.97;1.60;;;;;;;19.79;53.73;95958.31;5014025;28;20194;-28
2024/01/03 08:50:13;;;;;;;3.43;1.60;;;;;;;19.73;53.72;95947.19;5014240;28;20626;-26
2024/01/03 08:52:41;;;;;;;5.67;1.60;;;;;;;19.83;53.82;95954.94;5013676;28;20194;-26
2024/01/03 08:55:07;;;;;;;4.47;1.80;;;;;;;19.82;53.91;95950.69;5013917;28;20559;-30
2024/01/03 08:57:34;;;;;;;6.47;2.03;;;;;;;19.71;53.88;95938.66;5013112;28;20223;-28
2024/01/03 09:00:00;;;;;;;9.47;2.00;;;;;;;19.84;54.10;95953.28;5012957;28;20265;-26
2024/01/03 09:02:27;;;;;;;3.77;1.70;;;;;;;19.83;53.99;95957.50;5014222;28;20305;-27
2024/01/03 09:04:54;;;;;;;3.37;1.63;;;;;;;19.84;54.21;95953.28;5013898;28;20198;-26
2024/01/03 09:07:21;;;;;;;12.60;2.20;;;;;;;19.83;54.12;95964.28;5010470;28;20673;-26
2024/01/03 09:09:48;;;;;;;12.80;2.17;;;;;;;19.83;54.32;95964.28;5012592;28;20214;-32
2024/01/03 09:12:16;;;;;;;8.77;2.27;;;;;;;19.84;54.23;95966.00;5013150;28;20256;-26
2024/01/03 09:14:42;;;;;;;9.40;1.70;;;;;;;19.85;54.52;95972.81;5013109;28;20226;-26
2024/01/03 09:17:09;;;;;;;3.50;2.00;;;;;;;19.87;55.30;95974.53;5012593;28;20226;-26
2024/01/03 09:19:36;;;;;;;4.67;2.30;;;;;;;19.89;55.46;95974.53;5013663;28;20269;-26
2024/01/03 09:22:02;;;;;;;7.50;1.90;;;;;;;19.90;55.64;95979.66;5013811;28;20206;-27
2024/01/03 09:24:29;;;;;;;9.43;2.20;;;;;;;19.92;55.83;95983.09;5012613;28;20661;-26
2024/01/03 09:26:57;;;;;;;7.37;2.03;;;;;;;19.92;55.97;95982.22;5013109;28;20673;-28
2024/01/03 09:29:24;;;;;;;4.77;2.40;;;;;;;19.94;55.82;95985.66;5013060;28;20230;-26
2024/01/03 09:31:50;;;;;;;5.40;2.20;;;;;;;19.94;55.71;95978.88;5012281;28;20202;-28
2024/01/03 09:34:17;;;;;;;5.30;2.13;;;;;;;19.97;55.97;95990.78;5013034;28;20202;-26
2024/01/03 09:36:44;;;;;;;5.47;2.03;;;;;;;19.98;55.99;95984.84;5013400;28;20242;-26
2024/01/03 09:39:12;;;;;;;16.33;3.20;;;;;;;19.99;56.52;95989.97;5013252;28;20226;-28
2024/01/03 09:41:38;;;;;;;6.77;2.17;;;;;;;20.01;56.19;95979.78;5013166;28;20256;-26
2024/01/03 09:44:05;;;;;;;7.47;2.07;;;;;;;20.02;56.00;95984.06;5015050;28;20210;-27
2024/01/03 09:46:34;;;;;;;7.23;2.27;;;;;;;20.02;56.26;95973.84;5012699;28;20249;-26
2024/01/03 09:49:01;;;;;;;8.93;2.70;;;;;;;20.05;55.99;95968.78;5012285;28;20222;-28
2024/01/03 09:51:28;;;;;;;4.97;2.20;;;;;;;20.05;55.81;95967.94;5014238;28;20206;-26
2024/01/03 09:53:54;;;;;;;7.40;2.00;;;;;;;20.05;56.17;95970.47;5012291;28;20206;-27
2024/01/03 09:56:22;;;;;;;5.67;2.20;;;;;;;20.04;55.94;95976.44;5012363;28;20230;-26
2024/01/03 09:58:48;;;;;;;6.63;2.00;;;;;;;20.05;56.52;95973.03;5006090;28;20257;-26
2024/01/03 10:01:15;;;;;;;4.17;2.00;;;;;;;20.03;56.38;95970.47;5012786;28;20201;-26
2024/01/03 10:03:42;;;;;;;4.63;1.93;;;;;;;20.02;56.23;95972.16;5011760;28;20199;-28
2024/01/03 10:06:15;;;;;;;8.17;2.13;;;;;;;20.02;56.14;95971.31;5012473;28;20202;-26
2024/01/03 10:09:02;;;;;;;11.43;2.37;;;;;;;20.02;56.16;95968.75;5012106;28;20221;-31
2024/01/03 10:11:29;;;;;;;6.70;2.37;;;;;;;20.01;56.18;95954.28;5011547;28;20230;-26
2024/01/03 10:13:56;;;;;;;4.43;2.23;;;;;;;19.99;56.16;95954.25;5012530;28;20248;-30
2024/01/03 10:16:23;;;;;;;5.03;1.80;;;;;;;19.99;56.11;95944.06;5012496;28;20268;-26
2024/01/03 10:19:12;;;;;;;17.77;2.60;;;;;;;20.00;56.33;95950.03;5012799;28;20597;-28
2024/01/03 10:21:52;;;;;;;19.73;2.83;;;;;;;19.99;56.07;95938.13;5013062;28;20622;-26
2024/01/03 10:24:22;;;;;;;14.87;2.57;;;;;;;19.99;56.19;95935.59;5012645;28;20202;-27
2024/01/03 10:26:48;;;;;;;11.10;3.03;;;;;;;19.99;55.86;95931.31;5012090;28;20205;-26
2024/01/03 10:29:17;;;;;;;16.43;3.13;;;;;;;20.01;55.75;95936.44;5012740;28;20671;-26
2024/01/03 10:31:47;;;;;;;9.30;2.33;;;;;;;20.01;55.52;95928.78;5011766;28;20252;-26
2024/01/03 10:34:20;;;;;;;11.03;2.60;;;;;;;20.01;55.75;95933.88;5010490;28;20643;-27
2024/01/03 10:36:49;;;;;;;13.30;2.20;;;;;;;20.03;55.62;95929.66;5011973;28;20218;-26
2024/01/03 10:39:17;;;;;;;8.13;2.67;;;;;;;20.03;55.66;95934.75;5004534;28;20222;-31
2024/01/03 10:41:48;;;;;;;14.80;2.97;;;;;;;20.05;55.84;95945.84;5012733;28;20195;-26
2024/01/03 10:44:16;;;;;;;8.57;2.90;;;;;;;20.05;55.79;95942.44;5012633;28;20240;-26
2024/01/03 10:46:43;;;;;;;14.70;2.97;;;;;;;20.04;55.77;95946.66;5011713;28;20226;-26
2024/01/03 10:49:10;;;;;;;10.30;3.10;;;;;;;20.03;55.85;95939.88;5012304;28;20218;-27
2024/01/03 10:51:39;;;;;;;9.20;2.40;;;;;;;20.02;55.81;95938.16;5012479;28;20606;-26
2024/01/03 10:54:15;;;;;;;7.57;2.53;;;;;;;20.03;55.82;95944.97;5004132;28;20206;-28
2024/01/03 10:56:47;;;;;;;7.53;2.63;;;;;;;20.01;55.84;95940.69;5011817;28;20244;-28
2024/01/03 10:59:13;;;;;;;14.20;2.80;;;;;;;20.01;56.02;95938.16;5012860;28;20248;-26
2024/01/03 11:01:50;;;;;;;7.23;2.40;;;;;;;19.99;55.95;95933.03;5012017;28;20202;-28
2024/01/03 11:04:35;;;;;;;8.43;2.40;;;;;;;19.98;55.91;95926.19;5004324;28;20205;-28
2024/01/03 11:07:13;;;;;;;14.13;2.67;;;;;;;19.96;56.10;95925.34;5012401;28;20234;-26
2024/01/03 11:09:41;;;;;;;6.90;2.53;;;;;;;19.96;56.07;95922.81;5012300;28;20225;-26
2024/01/03 11:12:13;;;;;;;10.23;2.60;;;;;;;19.96;56.12;95922.81;5011542;28;20206;-26
2024/01/03 11:14:39;;;;;;;7.47;2.30;;;;;;;19.96;56.09;95903.25;5011771;28;20198;-26
2024/01/03 11:17:09;;;;;;;5.13;2.23;;;;;;;19.96;56.07;95920.25;5012555;28;20715;-26
2024/01/03 11:19:37;;;;;;;7.23;2.50;;;;;;;19.95;55.98;95911.75;5002974;28;20222;-27
2024/01/03 11:22:04;;;;;;;7.20;2.20;;;;;;;19.95;55.95;95914.28;5011679;28;20256;-26
2024/01/03 11:24:30;;;;;;;4.90;2.07;;;;;;;19.96;55.78;95898.16;5014682;28;20202;-29
2024/01/03 11:27:04;;;;;;;4.87;1.93;;;;;;;19.98;56.20;95900.72;5015001;28;20195;-27
2024/01/03 11:29:45;;;;;;;4.20;1.80;;;;;;;19.99;55.99;95905.81;5014850;28;20272;-26
2024/01/03 11:32:12;;;;;;;4.63;2.20;;;;;;;20.01;56.25;95913.47;5015104;28;20283;-34
2024/01/03 11:34:45;;;;;;;8.70;2.20;;;;;;;20.02;55.98;95910.13;5012227;28;20202;-26